Terminal Aerodrome Forecast
Issued by NWS Binghamton, NY

Home | Current Version | Previous Version | Text Only | Print | Product List | Glossary On
Versions: 1 2 3 4 5 6 7 8 9 10 11 12 13 14 15 16
000
FTUS41 KBGM 232300
TAFAVP
TAF
KAVP 232324Z 2400/2424 32012KT P6SM OVC030
     FM240200 32008KT P6SM SCT050
     FM241400 32014G24KT P6SM SKC=

USA.gov is the U.S. government's official web portal to all federal, state and local government web resources and services.